Time;durP1;ratioP1;P1;durP2;ratioP2;P2;SDS_P1;SDS_P2;PMS_P1;PMS_P2;Temp;Humidity;BMP_temperature;BMP_pressure;BME280_temperature;BME280_humidity;BME280_pressure;Samples;Min_cycle;Max_cycle;Signal;HPM_P1;HPM_P2
2023/08/05 00:00:26;;;;;;;4.63;3.60;;;;;;;;;;5085672;28;20386;-28
2023/08/05 00:02:54;;;;;;;4.50;3.50;;;;;;;;;;5074288;28;20241;-30
2023/08/05 00:05:21;;;;;;;4.33;3.37;;;;;;;;;;5068840;28;20616;-28
2023/08/05 00:07:50;;;;;;;4.20;3.33;;;;;;;;;;5078254;28;20217;-29
2023/08/05 00:10:17;;;;;;;3.93;2.90;;;;;;;;;;5089715;28;20233;-26
2023/08/05 00:12:45;;;;;;;4.93;3.03;;;;;;;;;;5078431;28;20292;-30
2023/08/05 00:15:12;;;;;;;3.53;3.23;;;;;;;;;;5083207;28;20227;-32
2023/08/05 00:17:39;;;;;;;4.00;3.33;;;;;;;;;;5068833;28;20198;-31
2023/08/05 00:20:09;;;;;;;4.80;3.30;;;;;;;;;;5070834;28;20228;-27
2023/08/05 00:22:36;;;;;;;4.00;3.20;;;;;;;;;;5079845;28;20225;-30
2023/08/05 00:25:03;;;;;;;3.57;3.27;;;;;;;;;;5086943;28;20198;-29
2023/08/05 00:27:30;;;;;;;4.00;2.90;;;;;;;;;;5085177;28;20222;-31
2023/08/05 00:29:58;;;;;;;3.63;3.33;;;;;;;;;;5089150;28;20223;-29
2023/08/05 00:32:25;;;;;;;2.90;2.70;;;;;;;;;;5082551;28;20205;-31
2023/08/05 00:34:52;;;;;;;5.03;3.67;;;;;;;;;;5073804;28;20352;-28
2023/08/05 00:37:20;;;;;;;4.97;3.23;;;;;;;;;;5088991;28;20204;-28
2023/08/05 00:39:47;;;;;;;3.60;3.17;;;;;;;;;;5079076;28;20247;-27
2023/08/05 00:42:18;;;;;;;3.03;2.70;;;;;;;;;;5071651;28;20221;-29
2023/08/05 00:44:45;;;;;;;3.63;2.97;;;;;;;;;;5079240;28;20237;-33
2023/08/05 00:47:12;;;;;;;6.27;3.23;;;;;;;;;;5073597;28;20202;-30
2023/08/05 00:49:40;;;;;;;3.23;2.93;;;;;;;;;;5073890;28;20240;-30
2023/08/05 00:52:08;;;;;;;4.03;2.57;;;;;;;;;;5080438;28;20239;-26
2023/08/05 00:54:37;;;;;;;4.87;3.10;;;;;;;;;;5088245;28;20199;-29
2023/08/05 00:57:04;;;;;;;3.30;3.00;;;;;;;;;;5073268;28;20226;-26
2023/08/05 00:59:31;;;;;;;3.10;2.80;;;;;;;;;;5081980;28;20219;-29
2023/08/05 01:01:59;;;;;;;3.47;2.80;;;;;;;;;;5079162;28;20292;-30
2023/08/05 01:04:26;;;;;;;4.53;3.20;;;;;;;;;;5093013;28;20205;-27
2023/08/05 01:06:55;;;;;;;4.23;3.13;;;;;;;;;;5078063;28;20210;-27
2023/08/05 01:09:23;;;;;;;3.17;2.87;;;;;;;;;;5075068;28;20352;-28
2023/08/05 01:11:51;;;;;;;3.77;3.10;;;;;;;;;;5086377;28;20218;-27
2023/08/05 01:14:19;;;;;;;5.30;3.10;;;;;;;;;;5080209;28;20296;-32
2023/08/05 01:16:46;;;;;;;3.03;2.77;;;;;;;;;;5086406;28;20212;-30
2023/08/05 01:19:18;;;;;;;3.87;2.87;;;;;;;;;;5073527;28;20521;-29
2023/08/05 01:21:49;;;;;;;4.93;3.63;;;;;;;;;;5073823;28;20522;-30
2023/08/05 01:24:21;;;;;;;4.60;3.30;;;;;;;;;;5073501;28;20297;-28
2023/08/05 01:26:50;;;;;;;4.90;3.07;;;;;;;;;;5073747;28;21897;-29
2023/08/05 01:29:17;;;;;;;2.93;2.73;;;;;;;;;;5078455;28;20259;-28
2023/08/05 01:31:45;;;;;;;3.90;3.53;;;;;;;;;;5082001;28;20239;-28
2023/08/05 01:34:13;;;;;;;3.00;2.70;;;;;;;;;;5074940;28;20206;-26
2023/08/05 01:36:40;;;;;;;3.53;3.10;;;;;;;;;;5075297;28;20205;-27
2023/08/05 01:39:07;;;;;;;3.33;2.57;;;;;;;;;;5087897;28;20270;-32
2023/08/05 01:41:34;;;;;;;3.53;3.23;;;;;;;;;;5082982;28;20193;-28
2023/08/05 01:44:03;;;;;;;3.03;2.77;;;;;;;;;;5088264;28;20288;-29
2023/08/05 01:46:30;;;;;;;4.40;3.17;;;;;;;;;;5080304;28;20204;-31
2023/08/05 01:48:57;;;;;;;4.77;2.83;;;;;;;;;;5073085;28;20226;-30
2023/08/05 01:51:24;;;;;;;3.53;2.80;;;;;;;;;;5071016;28;20206;-32
2023/08/05 01:53:51;;;;;;;3.20;2.50;;;;;;;;;;5087685;28;20206;-29
2023/08/05 01:56:18;;;;;;;4.23;2.83;;;;;;;;;;5091726;28;20666;-29
2023/08/05 01:58:45;;;;;;;3.83;2.73;;;;;;;;;;5077533;28;20585;-28
2023/08/05 02:01:14;;;;;;;2.67;2.47;;;;;;;;;;5090058;28;20208;-29
2023/08/05 02:03:41;;;;;;;3.20;2.90;;;;;;;;;;5072270;28;20208;-27
2023/08/05 02:06:08;;;;;;;3.13;2.83;;;;;;;;;;5074882;28;20201;-26
2023/08/05 02:08:35;;;;;;;3.77;3.00;;;;;;;;;;5091181;28;20225;-28
2023/08/05 02:11:03;;;;;;;4.23;2.80;;;;;;;;;;5092024;28;20465;-29
2023/08/05 02:13:30;;;;;;;5.10;3.20;;;;;;;;;;5076132;28;20275;-28
2023/08/05 02:15:58;;;;;;;4.23;2.60;;;;;;;;;;5090841;28;20260;-32
2023/08/05 02:18:26;;;;;;;3.00;2.40;;;;;;;;;;5091762;28;20205;-28
2023/08/05 02:20:53;;;;;;;6.90;3.13;;;;;;;;;;5092241;28;20227;-31
2023/08/05 02:23:20;;;;;;;4.23;2.77;;;;;;;;;;5076333;28;20202;-27
2023/08/05 02:25:47;;;;;;;3.23;2.40;;;;;;;;;;5078314;28;20204;-31
2023/08/05 02:28:15;;;;;;;5.60;3.27;;;;;;;;;;5075062;28;20264;-31
2023/08/05 02:30:42;;;;;;;5.83;3.23;;;;;;;;;;5083181;28;20201;-29
2023/08/05 02:33:09;;;;;;;5.80;2.93;;;;;;;;;;5071726;28;20198;-28
2023/08/05 02:35:38;;;;;;;4.37;2.83;;;;;;;;;;5070122;28;20229;-30
2023/08/05 02:38:05;;;;;;;3.20;2.70;;;;;;;;;;5078817;28;20202;-28
2023/08/05 02:40:33;;;;;;;8.03;2.77;;;;;;;;;;5079684;28;20223;-32
2023/08/05 02:43:00;;;;;;;2.77;2.57;;;;;;;;;;5078221;28;20204;-30
2023/08/05 02:45:27;;;;;;;3.93;3.03;;;;;;;;;;5086195;28;20201;-31
2023/08/05 02:47:54;;;;;;;4.90;2.70;;;;;;;;;;5074912;28;20213;-31
2023/08/05 02:50:21;;;;;;;4.70;2.60;;;;;;;;;;5071265;28;20225;-31
2023/08/05 02:52:50;;;;;;;3.43;2.60;;;;;;;;;;5073374;28;20406;-28
2023/08/05 02:55:17;;;;;;;3.77;2.97;;;;;;;;;;5073320;28;20210;-29
2023/08/05 02:57:44;;;;;;;2.80;2.50;;;;;;;;;;5079551;28;20209;-27
2023/08/05 03:00:12;;;;;;;3.77;2.67;;;;;;;;;;5079011;28;20228;-31
2023/08/05 03:02:39;;;;;;;4.90;3.07;;;;;;;;;;5077022;28;20201;-29
2023/08/05 03:05:06;;;;;;;4.20;2.90;;;;;;;;;;5069597;28;20288;-27
2023/08/05 03:07:33;;;;;;;4.37;2.97;;;;;;;;;;5078521;28;20201;-31
2023/08/05 03:10:02;;;;;;;3.03;2.60;;;;;;;;;;5091181;28;20240;-29
2023/08/05 03:12:29;;;;;;;3.60;3.10;;;;;;;;;;5080010;28;20194;-29
2023/08/05 03:14:56;;;;;;;3.63;3.30;;;;;;;;;;5073224;28;20205;-28
2023/08/05 03:17:23;;;;;;;3.33;2.80;;;;;;;;;;5082396;28;20196;-30
2023/08/05 03:19:52;;;;;;;3.77;2.80;;;;;;;;;;5089914;28;20216;-30
2023/08/05 03:22:19;;;;;;;3.93;2.80;;;;;;;;;;5088476;28;20200;-30
2023/08/05 03:24:47;;;;;;;3.43;3.00;;;;;;;;;;5084227;28;20194;-29
2023/08/05 03:27:15;;;;;;;5.50;2.73;;;;;;;;;;5071497;28;20210;-28
2023/08/05 03:29:42;;;;;;;3.80;3.17;;;;;;;;;;5071835;28;20328;-31
2023/08/05 03:32:09;;;;;;;3.77;3.37;;;;;;;;;;5078449;28;20224;-30
2023/08/05 03:34:37;;;;;;;5.50;3.53;;;;;;;;;;5070428;28;20232;-31
2023/08/05 03:37:05;;;;;;;3.60;2.83;;;;;;;;;;5075512;28;20201;-27
2023/08/05 03:39:32;;;;;;;7.03;3.60;;;;;;;;;;5085051;28;20645;-29
2023/08/05 03:41:59;;;;;;;4.93;3.20;;;;;;;;;;5171077;22;20204;-28
2023/08/05 03:44:28;;;;;;;4.73;3.27;;;;;;;;;;5072291;28;20208;-30
2023/08/05 03:46:55;;;;;;;3.50;2.87;;;;;;;;;;5086155;28;20688;-31
2023/08/05 03:49:22;;;;;;;3.37;3.07;;;;;;;;;;5082611;28;20230;-32
2023/08/05 03:51:49;;;;;;;3.87;3.00;;;;;;;;;;5082473;28;20202;-31
2023/08/05 03:54:16;;;;;;;3.17;2.87;;;;;;;;;;5085103;28;20212;-29
2023/08/05 03:56:43;;;;;;;4.83;3.37;;;;;;;;;;5084410;28;20202;-30
2023/08/05 03:59:10;;;;;;;3.97;3.07;;;;;;;;;;5074647;28;20226;-31
2023/08/05 04:01:39;;;;;;;3.33;2.97;;;;;;;;;;5076365;28;20205;-29
2023/08/05 04:04:06;;;;;;;5.53;3.50;;;;;;;;;;5085709;28;20197;-27
2023/08/05 04:06:33;;;;;;;4.87;3.53;;;;;;;;;;5075169;28;20285;-29
2023/08/05 04:09:00;;;;;;;5.03;3.40;;;;;;;;;;5084672;28;20234;-30
2023/08/05 04:11:27;;;;;;;4.23;3.50;;;;;;;;;;5077435;28;20209;-29
2023/08/05 04:13:58;;;;;;;4.60;3.30;;;;;;;;;;5072651;28;20271;-29
2023/08/05 04:16:25;;;;;;;3.27;2.50;;;;;;;;;;5069583;28;20205;-31
2023/08/05 04:18:53;;;;;;;3.47;3.00;;;;;;;;;;5070212;28;20225;-30
2023/08/05 04:21:23;;;;;;;4.23;3.37;;;;;;;;;;5069004;28;20209;-31
2023/08/05 04:23:50;;;;;;;2.70;2.50;;;;;;;;;;5081174;28;20201;-27
2023/08/05 04:26:17;;;;;;;4.17;3.30;;;;;;;;;;5083054;28;20292;-28
2023/08/05 04:28:44;;;;;;;5.50;2.93;;;;;;;;;;5082568;28;20229;-29
2023/08/05 04:31:11;;;;;;;6.67;3.30;;;;;;;;;;5083698;28;20199;-29
2023/08/05 04:33:39;;;;;;;5.60;4.03;;;;;;;;;;5091752;28;20201;-30
2023/08/05 04:36:07;;;;;;;3.57;3.10;;;;;;;;;;5082959;28;20779;-28
2023/08/05 04:38:34;;;;;;;4.97;3.37;;;;;;;;;;5075737;28;20217;-30
2023/08/05 04:41:01;;;;;;;5.80;3.17;;;;;;;;;;5086465;28;20192;-29
2023/08/05 04:43:29;;;;;;;3.73;3.10;;;;;;;;;;5069570;28;20209;-30
2023/08/05 04:45:56;;;;;;;4.90;3.33;;;;;;;;;;5080033;28;20204;-27
2023/08/05 04:48:23;;;;;;;3.97;3.47;;;;;;;;;;5089755;28;20209;-30
2023/08/05 04:50:50;;;;;;;3.60;3.30;;;;;;;;;;5089726;28;20295;-30
2023/08/05 04:53:19;;;;;;;2.93;2.73;;;;;;;;;;5077297;28;20204;-28
2023/08/05 04:55:46;;;;;;;4.50;3.03;;;;;;;;;;5077425;28;20205;-29
2023/08/05 04:58:13;;;;;;;5.27;3.10;;;;;;;;;;5078601;28;20208;-28
2023/08/05 05:00:40;;;;;;;4.10;2.93;;;;;;;;;;5088971;28;20208;-29
2023/08/05 05:03:08;;;;;;;3.87;3.50;;;;;;;;;;5079775;28;20201;-30
2023/08/05 05:05:36;;;;;;;5.10;3.50;;;;;;;;;;5068084;28;20210;-31
2023/08/05 05:08:03;;;;;;;4.13;3.47;;;;;;;;;;5082077;28;20205;-29
2023/08/05 05:10:32;;;;;;;5.50;3.20;;;;;;;;;;5084821;28;20225;-30
2023/08/05 05:12:59;;;;;;;4.27;3.27;;;;;;;;;;5073588;28;20205;-29
2023/08/05 05:15:26;;;;;;;4.43;3.27;;;;;;;;;;5072535;28;20201;-27
2023/08/05 05:17:53;;;;;;;4.67;3.40;;;;;;;;;;5088854;28;20260;-29
2023/08/05 05:20:21;;;;;;;2.80;2.53;;;;;;;;;;5093878;28;20217;-28
2023/08/05 05:22:48;;;;;;;3.37;2.83;;;;;;;;;;5084046;28;20205;-28
2023/08/05 05:25:15;;;;;;;2.87;2.67;;;;;;;;;;5092506;28;20201;-26
2023/08/05 05:27:43;;;;;;;4.50;2.90;;;;;;;;;;5079920;28;20200;-31
2023/08/05 05:30:11;;;;;;;3.07;2.77;;;;;;;;;;5080858;28;20304;-28
2023/08/05 05:32:38;;;;;;;3.97;2.97;;;;;;;;;;5095211;28;20240;-29
2023/08/05 05:35:05;;;;;;;5.47;3.43;;;;;;;;;;5095077;28;20215;-28
2023/08/05 05:37:33;;;;;;;5.40;3.90;;;;;;;;;;5078287;28;20434;-29
2023/08/05 05:40:00;;;;;;;8.23;3.57;;;;;;;;;;5083340;28;20218;-31
2023/08/05 05:42:28;;;;;;;5.37;3.30;;;;;;;;;;5073718;28;20216;-29
2023/08/05 05:44:56;;;;;;;3.53;3.00;;;;;;;;;;5083245;28;20201;-30
2023/08/05 05:47:23;;;;;;;3.70;3.00;;;;;;;;;;5086239;28;20215;-28
2023/08/05 05:49:50;;;;;;;2.93;2.63;;;;;;;;;;5090058;28;20229;-29
2023/08/05 05:52:18;;;;;;;3.90;3.50;;;;;;;;;;5089066;28;20215;-28
2023/08/05 05:54:45;;;;;;;3.47;3.17;;;;;;;;;;5079570;28;20201;-30
2023/08/05 05:57:12;;;;;;;4.30;3.13;;;;;;;;;;5075932;28;20505;-30
2023/08/05 05:59:40;;;;;;;3.70;3.37;;;;;;;;;;5088031;28;20315;-32
2023/08/05 06:02:10;;;;;;;4.90;3.50;;;;;;;;;;5084139;28;20201;-29
2023/08/05 06:04:38;;;;;;;3.90;2.97;;;;;;;;;;5079906;28;20287;-27
2023/08/05 06:07:06;;;;;;;5.30;3.20;;;;;;;;;;5094142;28;20204;-27
2023/08/05 06:09:33;;;;;;;3.70;3.17;;;;;;;;;;5089826;28;20319;-39
2023/08/05 06:12:00;;;;;;;6.90;3.40;;;;;;;;;;5082861;28;20224;-37
2023/08/05 06:14:28;;;;;;;3.87;2.97;;;;;;;;;;5086091;28;20197;-33
2023/08/05 06:16:55;;;;;;;2.67;2.47;;;;;;;;;;5082830;28;20198;-36
2023/08/05 06:19:29;;;;;;;3.93;3.20;;;;;;;;;;5079817;28;20224;-36
2023/08/05 06:21:56;;;;;;;6.00;3.97;;;;;;;;;;5083693;28;20326;-35
2023/08/05 06:24:23;;;;;;;4.07;3.20;;;;;;;;;;5085395;28;20290;-31
2023/08/05 06:26:50;;;;;;;5.70;2.90;;;;;;;;;;5083882;28;20255;-38
2023/08/05 06:29:17;;;;;;;4.17;2.57;;;;;;;;;;5079618;28;20239;-35
2023/08/05 06:31:45;;;;;;;3.83;3.50;;;;;;;;;;5085374;28;20205;-35
2023/08/05 06:34:13;;;;;;;4.40;3.33;;;;;;;;;;5092638;28;20211;-34
2023/08/05 06:36:41;;;;;;;3.10;2.80;;;;;;;;;;5087737;28;20224;-36
2023/08/05 06:39:16;;;;;;;3.83;3.10;;;;;;;;;;5086582;28;20217;-36
2023/08/05 06:41:43;;;;;;;4.60;2.97;;;;;;;;;;5079783;28;20234;-36
2023/08/05 06:44:10;;;;;;;5.90;3.00;;;;;;;;;;5078221;28;20207;-34
2023/08/05 06:46:39;;;;;;;3.63;2.90;;;;;;;;;;5073646;28;20211;-37
2023/08/05 06:49:06;;;;;;;3.40;2.73;;;;;;;;;;5080423;28;20292;-36
2023/08/05 06:51:33;;;;;;;4.67;3.73;;;;;;;;;;5080812;28;20236;-29
2023/08/05 06:54:02;;;;;;;2.17;2.03;;;;;;;;;;5082427;28;20193;-38
2023/08/05 06:56:29;;;;;;;4.17;2.73;;;;;;;;;;5085519;28;20205;-38
2023/08/05 06:58:56;;;;;;;3.70;3.20;;;;;;;;;;5077442;28;20231;-32
2023/08/05 07:01:23;;;;;;;6.57;3.30;;;;;;;;;;5080793;28;20207;-41
2023/08/05 07:03:51;;;;;;;4.33;2.83;;;;;;;;;;5089043;28;20236;-37
2023/08/05 07:06:18;;;;;;;5.73;3.00;;;;;;;;;;5073469;28;20213;-38
2023/08/05 07:08:45;;;;;;;2.83;2.57;;;;;;;;;;5073398;28;20214;-38
2023/08/05 07:11:13;;;;;;;3.93;2.63;;;;;;;;;;5073725;28;20221;-36
2023/08/05 07:13:40;;;;;;;2.60;2.40;;;;;;;;;;5075172;28;20216;-34
2023/08/05 07:16:08;;;;;;;3.77;2.30;;;;;;;;;;5077932;28;20270;-35
2023/08/05 07:18:35;;;;;;;3.20;2.90;;;;;;;;;;5073545;28;20215;-35
2023/08/05 07:21:02;;;;;;;3.53;2.50;;;;;;;;;;5074227;28;20281;-35
2023/08/05 07:23:29;;;;;;;2.53;2.33;;;;;;;;;;5074430;28;20201;-36
2023/08/05 07:25:56;;;;;;;4.47;2.47;;;;;;;;;;5071213;28;20209;-39
2023/08/05 07:28:26;;;;;;;2.27;2.07;;;;;;;;;;5077824;28;20205;-38
2023/08/05 07:31:02;;;;;;;2.53;2.37;;;;;;;;;;5089577;28;20309;-35
2023/08/05 07:33:30;;;;;;;5.47;2.63;;;;;;;;;;5091671;28;20226;-35
2023/08/05 07:35:57;;;;;;;2.90;2.57;;;;;;;;;;5077588;28;20207;-34
2023/08/05 07:38:25;;;;;;;3.00;2.50;;;;;;;;;;5090903;28;20208;-34
2023/08/05 07:40:55;;;;;;;3.63;2.60;;;;;;;;;;5093339;28;20294;-35
2023/08/05 07:43:24;;;;;;;2.90;2.30;;;;;;;;;;5075170;28;20211;-36
2023/08/05 07:45:52;;;;;;;2.90;2.60;;;;;;;;;;5083583;28;20203;-35
2023/08/05 07:48:19;;;;;;;5.10;2.33;;;;;;;;;;5093714;28;20214;-38
2023/08/05 07:50:47;;;;;;;2.60;2.33;;;;;;;;;;5094549;28;20226;-38
2023/08/05 07:53:18;;;;;;;3.27;2.30;;;;;;;;;;5091687;28;20363;-42
2023/08/05 07:55:45;;;;;;;2.37;2.17;;;;;;;;;;5082054;28;20217;-37
2023/08/05 07:58:13;;;;;;;2.90;2.57;;;;;;;;;;5072105;28;20212;-31
2023/08/05 08:00:41;;;;;;;4.07;2.90;;;;;;;;;;5075624;28;20205;-39
2023/08/05 08:03:08;;;;;;;5.20;2.40;;;;;;;;;;5078155;28;20206;-36
2023/08/05 08:05:35;;;;;;;2.80;2.60;;;;;;;;;;5081302;28;20207;-37
2023/08/05 08:08:02;;;;;;;2.67;2.47;;;;;;;;;;5077315;28;20198;-34
2023/08/05 08:10:30;;;;;;;6.00;2.90;;;;;;;;;;5079731;28;20275;-35
2023/08/05 08:12:57;;;;;;;4.37;2.80;;;;;;;;;;5077045;28;20202;-36
2023/08/05 08:15:24;;;;;;;2.80;2.23;;;;;;;;;;5074044;28;20202;-39
2023/08/05 08:17:54;;;;;;;2.60;2.00;;;;;;;;;;5087090;28;20212;-36
2023/08/05 08:20:21;;;;;;;3.07;2.60;;;;;;;;;;5092888;28;20222;-34
2023/08/05 08:22:48;;;;;;;3.30;2.37;;;;;;;;;;5070330;28;20206;-40
2023/08/05 08:25:15;;;;;;;2.53;2.20;;;;;;;;;;5084754;28;20208;-40
2023/08/05 08:27:42;;;;;;;3.33;2.50;;;;;;;;;;5079795;28;20202;-41
2023/08/05 08:30:11;;;;;;;3.73;2.43;;;;;;;;;;5085228;28;20317;-34
2023/08/05 08:32:38;;;;;;;2.50;2.30;;;;;;;;;;5087086;28;20205;-39
2023/08/05 08:35:07;;;;;;;4.23;2.47;;;;;;;;;;5072095;28;20206;-33
2023/08/05 08:37:34;;;;;;;3.10;2.80;;;;;;;;;;5076997;28;20197;-34
2023/08/05 08:40:02;;;;;;;2.53;2.33;;;;;;;;;;5088736;28;20226;-39
2023/08/05 08:42:30;;;;;;;2.77;2.57;;;;;;;;;;5085288;28;20214;-31
2023/08/05 08:44:57;;;;;;;4.30;2.40;;;;;;;;;;5077356;28;20212;-35
2023/08/05 08:47:25;;;;;;;2.47;2.23;;;;;;;;;;5071768;28;20195;-34
2023/08/05 08:49:54;;;;;;;3.60;2.40;;;;;;;;;;5072590;28;20223;-37
2023/08/05 08:52:22;;;;;;;2.90;2.30;;;;;;;;;;5074576;28;20204;-38
2023/08/05 08:54:51;;;;;;;4.93;2.20;;;;;;;;;;5084754;28;20209;-35
2023/08/05 08:57:18;;;;;;;2.30;2.20;;;;;;;;;;5081727;28;20208;-36
2023/08/05 08:59:46;;;;;;;2.60;2.23;;;;;;;;;;5078221;28;20282;-34
2023/08/05 09:02:13;;;;;;;3.03;2.13;;;;;;;;;;5086214;28;20189;-33
2023/08/05 09:04:42;;;;;;;3.43;2.00;;;;;;;;;;5088922;28;20200;-35
2023/08/05 09:07:10;;;;;;;2.47;2.20;;;;;;;;;;5077217;28;20201;-33
2023/08/05 09:09:39;;;;;;;2.57;2.00;;;;;;;;;;5078072;28;20225;-39
2023/08/05 09:12:09;;;;;;;2.00;1.90;;;;;;;;;;5083112;28;20273;-39
2023/08/05 09:14:36;;;;;;;1.97;1.87;;;;;;;;;;5079932;28;20299;-38
2023/08/05 09:17:04;;;;;;;2.13;1.97;;;;;;;;;;5083492;28;20204;-37
2023/08/05 09:19:31;;;;;;;4.27;1.90;;;;;;;;;;5077348;28;20227;-39
2023/08/05 09:22:01;;;;;;;3.28;2.10;;;;;;;;;;5083628;28;20207;-36
2023/08/05 09:24:28;;;;;;;2.17;1.97;;;;;;;;;;5083450;28;20207;-39
2023/08/05 09:26:57;;;;;;;2.43;2.10;;;;;;;;;;5080245;28;20235;-40
2023/08/05 09:29:24;;;;;;;6.83;2.10;;;;;;;;;;5079452;28;20220;-33
2023/08/05 09:32:01;;;;;;;2.37;2.20;;;;;;;;;;5076975;28;20232;-43
2023/08/05 09:34:35;;;;;;;3.10;2.20;;;;;;;;;;5079366;28;20213;-37
2023/08/05 09:37:02;;;;;;;2.80;2.30;;;;;;;;;;5074961;28;20213;-37
2023/08/05 09:39:44;;;;;;;2.30;2.10;;;;;;;;;;5080958;28;20310;-33
2023/08/05 09:42:21;;;;;;;5.03;2.63;;;;;;;;;;5075028;28;20269;-39
2023/08/05 09:44:49;;;;;;;2.80;2.60;;;;;;;;;;5082248;28;20227;-39
2023/08/05 09:47:20;;;;;;;5.03;3.00;;;;;;;;;;5083911;28;20294;-38
2023/08/05 09:49:49;;;;;;;3.40;2.40;;;;;;;;;;5095499;28;20224;-35
2023/08/05 09:52:17;;;;;;;3.90;2.43;;;;;;;;;;5083017;28;20308;-33
2023/08/05 09:54:47;;;;;;;3.83;2.53;;;;;;;;;;5092500;28;20208;-34
2023/08/05 09:57:14;;;;;;;2.60;2.37;;;;;;;;;;5088871;28;20212;-38
2023/08/05 09:59:43;;;;;;;3.57;2.40;;;;;;;;;;5082972;28;20227;-33
2023/08/05 10:02:12;;;;;;;3.20;2.23;;;;;;;;;;5085356;28;20214;-30
2023/08/05 10:04:41;;;;;;;2.60;2.40;;;;;;;;;;5092679;28;20197;-41
2023/08/05 10:07:09;;;;;;;4.60;2.53;;;;;;;;;;5083361;28;20200;-35
2023/08/05 10:09:37;;;;;;;3.07;2.13;;;;;;;;;;5078759;28;20247;-43
2023/08/05 10:12:05;;;;;;;3.43;2.53;;;;;;;;;;5079145;28;20216;-36
2023/08/05 10:14:32;;;;;;;2.13;2.00;;;;;;;;;;5075983;28;20271;-34
2023/08/05 10:17:01;;;;;;;3.30;2.30;;;;;;;;;;5085033;28;20201;-34
2023/08/05 10:19:29;;;;;;;2.50;2.30;;;;;;;;;;5073542;28;20225;-38
2023/08/05 10:22:08;;;;;;;2.20;2.00;;;;;;;;;;5075626;28;20208;-33
2023/08/05 10:43:33;;;;;;;;;;;;;;;;;;;;;
2023/08/05 10:46:53;;;;;;;;;;;;;;;;;;;;;
2023/08/05 10:49:45;;;;;;;2.27;2.07;;;;;;;;;;5040218;28;20247;-32
2023/08/05 10:58:46;;;;;;;4.50;1.90;;;;;;;;;;5091025;28;20206;-32
2023/08/05 16:25:35;;;;;;;1.60;1.50;;;;;;;;;;5048882;22;20243;-31
2023/08/05 16:28:02;;;;;;;2.40;1.90;;;;;;;;;;5062707;28;20316;-29
2023/08/05 16:30:29;;;;;;;2.20;1.42;;;;;;;;;;5063954;28;20221;-27
2023/08/05 16:32:56;;;;;;;2.37;1.60;;;;;;;;;;5058410;28;20679;-28
2023/08/05 16:35:23;;;;;;;2.25;1.92;;;;;;;;;;5028590;28;20199;-29
2023/08/05 16:37:53;;;;;;;1.37;1.33;;;;;;;;;;5037722;28;20199;-28
2023/08/05 16:40:20;;;;;;;1.60;1.50;;;;;;;;;;5057182;28;20255;-32
2023/08/05 16:42:48;;;;;;;2.00;1.63;;;;;;;;;;5044500;28;20202;-31
2023/08/05 16:45:16;;;;;;;1.50;1.40;;;;;;;;;;5053921;28;20223;-31
2023/08/05 16:47:43;;;;;;;1.60;1.40;;;;;;;;;;5049137;28;20212;-28
2023/08/05 16:50:10;;;;;;;1.58;1.48;;;;;;;;;;5041436;28;20222;-30
2023/08/05 16:52:37;;;;;;;2.57;1.50;;;;;;;;;;5042415;28;20228;-31
2023/08/05 16:55:05;;;;;;;1.47;1.30;;;;;;;;;;5056263;28;20209;-26
2023/08/05 16:57:32;;;;;;;3.37;1.90;;;;;;;;;;5038115;28;20206;-30
2023/08/05 17:00:00;;;;;;;4.07;1.57;;;;;;;;;;5060542;28;20221;-30
2023/08/05 17:02:28;;;;;;;1.97;1.50;;;;;;;;;;5053810;28;20285;-29
2023/08/05 17:04:58;;;;;;;1.60;1.50;;;;;;;;;;5069951;28;20538;-31
2023/08/05 17:07:25;;;;;;;2.47;1.80;;;;;;;;;;5048844;28;20572;-29
2023/08/05 17:09:52;;;;;;;2.10;1.90;;;;;;;;;;5049211;28;20226;-32
2023/08/05 17:12:19;;;;;;;2.33;2.10;;;;;;;;;;5056645;28;20228;-32
2023/08/05 17:14:46;;;;;;;2.10;1.97;;;;;;;;;;5054043;28;20289;-26
2023/08/05 17:17:15;;;;;;;2.67;1.90;;;;;;;;;;5052836;28;20291;-27
2023/08/05 17:19:42;;;;;;;2.67;1.83;;;;;;;;;;5048465;28;20229;-29
2023/08/05 17:22:10;;;;;;;3.93;2.20;;;;;;;;;;5041635;28;20252;-29
2023/08/05 17:24:37;;;;;;;1.70;1.60;;;;;;;;;;5054930;28;20204;-30
2023/08/05 17:27:04;;;;;;;1.90;1.80;;;;;;;;;;5048405;28;20213;-32
2023/08/05 17:29:31;;;;;;;1.90;1.80;;;;;;;;;;5044346;28;20228;-30
2023/08/05 17:31:58;;;;;;;2.07;1.70;;;;;;;;;;5054855;28;20748;-32
2023/08/05 17:34:27;;;;;;;2.57;1.70;;;;;;;;;;5053766;28;20213;-29
2023/08/05 17:36:54;;;;;;;2.00;1.60;;;;;;;;;;5050282;28;20204;-27
2023/08/05 17:39:21;;;;;;;1.80;1.70;;;;;;;;;;5061852;28;20210;-28
2023/08/05 17:41:48;;;;;;;3.03;1.87;;;;;;;;;;5049490;28;20215;-31
2023/08/05 17:44:16;;;;;;;2.83;2.33;;;;;;;;;;5053264;28;20280;-28
2023/08/05 17:46:44;;;;;;;3.93;2.43;;;;;;;;;;5048288;28;20335;-29
2023/08/05 17:49:11;;;;;;;4.03;2.30;;;;;;;;;;5036277;28;20228;-29
2023/08/05 17:51:39;;;;;;;1.80;1.70;;;;;;;;;;5038804;28;20700;-30
2023/08/05 17:54:06;;;;;;;2.47;2.00;;;;;;;;;;5041554;28;20368;-28
2023/08/05 17:56:34;;;;;;;3.30;1.97;;;;;;;;;;5034367;28;20554;-30
2023/08/05 17:59:01;;;;;;;2.03;1.83;;;;;;;;;;5043573;28;20216;-29
2023/08/05 18:01:28;;;;;;;2.00;1.80;;;;;;;;;;5042544;28;20210;-31
2023/08/05 18:03:55;;;;;;;2.50;2.13;;;;;;;;;;5042265;28;20207;-30
2023/08/05 18:06:25;;;;;;;3.00;2.40;;;;;;;;;;5035450;28;20209;-27
2023/08/05 18:08:53;;;;;;;2.53;1.93;;;;;;;;;;5036134;28;20320;-31
2023/08/05 18:11:22;;;;;;;2.30;1.77;;;;;;;;;;5030294;28;20378;-26
2023/08/05 18:13:49;;;;;;;1.90;1.80;;;;;;;;;;5029628;28;20639;-30
2023/08/05 18:16:16;;;;;;;3.00;2.80;;;;;;;;;;5037181;28;20261;-30
2023/08/05 18:18:43;;;;;;;2.17;1.83;;;;;;;;;;5041004;28;20229;-27
2023/08/05 18:21:11;;;;;;;1.97;1.87;;;;;;;;;;5035943;28;20318;-28
2023/08/05 18:23:38;;;;;;;3.03;1.97;;;;;;;;;;5044572;28;20623;-30
2023/08/05 18:26:06;;;;;;;2.10;1.93;;;;;;;;;;5053566;28;20309;-30
2023/08/05 18:28:34;;;;;;;2.00;1.80;;;;;;;;;;5037390;28;20316;-29
2023/08/05 18:31:01;;;;;;;2.60;1.83;;;;;;;;;;5045398;28;20210;-29
2023/08/05 18:33:28;;;;;;;2.53;1.63;;;;;;;;;;5043505;28;20222;-29
2023/08/05 18:35:57;;;;;;;2.20;2.00;;;;;;;;;;5032580;28;20210;-28
2023/08/05 18:38:24;;;;;;;2.40;2.00;;;;;;;;;;5049824;28;20202;-32
2023/08/05 18:40:51;;;;;;;3.10;2.20;;;;;;;;;;5053381;28;20212;-27
2023/08/05 18:43:20;;;;;;;3.23;2.33;;;;;;;;;;5046837;28;20204;-30
2023/08/05 18:45:53;;;;;;;2.93;2.00;;;;;;;;;;5060457;28;20277;-31
2023/08/05 18:48:20;;;;;;;2.00;1.70;;;;;;;;;;5056190;28;20204;-30
2023/08/05 18:50:47;;;;;;;1.97;1.87;;;;;;;;;;5049041;28;20208;-31
2023/08/05 18:53:14;;;;;;;2.20;2.00;;;;;;;;;;5055095;28;20234;-29
2023/08/05 18:55:41;;;;;;;2.37;2.17;;;;;;;;;;5068662;28;20213;-28
2023/08/05 18:58:09;;;;;;;2.00;1.87;;;;;;;;;;5042135;28;20326;-30
2023/08/05 19:00:39;;;;;;;2.03;1.93;;;;;;;;;;5044492;28;20222;-29
2023/08/05 19:03:07;;;;;;;2.03;1.93;;;;;;;;;;5047604;28;20211;-29
2023/08/05 19:05:34;;;;;;;2.03;1.93;;;;;;;;;;5035560;28;20205;-29
2023/08/05 19:08:01;;;;;;;3.23;2.00;;;;;;;;;;5052045;28;20295;-28
2023/08/05 19:10:28;;;;;;;2.00;1.90;;;;;;;;;;5038925;28;20224;-28
2023/08/05 19:12:55;;;;;;;2.07;1.63;;;;;;;;;;5032619;28;20221;-30
2023/08/05 19:15:22;;;;;;;3.83;1.70;;;;;;;;;;5055406;28;20206;-30
2023/08/05 19:17:51;;;;;;;1.77;1.67;;;;;;;;;;5049699;28;20688;-31
2023/08/05 19:20:18;;;;;;;3.07;1.60;;;;;;;;;;5050683;28;20230;-32
2023/08/05 19:22:46;;;;;;;3.03;1.60;;;;;;;;;;5045136;28;20200;-28
2023/08/05 19:25:13;;;;;;;2.17;1.97;;;;;;;;;;5048893;28;20234;-29
2023/08/05 19:27:40;;;;;;;3.13;1.63;;;;;;;;;;5053858;28;20658;-27
2023/08/05 19:30:08;;;;;;;1.73;1.60;;;;;;;;;;5060758;28;20231;-26
2023/08/05 19:32:35;;;;;;;2.70;1.63;;;;;;;;;;5057563;28;20250;-25
2023/08/05 19:35:05;;;;;;;2.50;1.93;;;;;;;;;;5072336;28;20265;-31
2023/08/05 19:37:33;;;;;;;1.60;1.50;;;;;;;;;;5047894;28;20211;-29
2023/08/05 19:40:03;;;;;;;2.00;1.90;;;;;;;;;;5045079;28;20223;-29
2023/08/05 19:42:33;;;;;;;1.90;1.80;;;;;;;;;;5057439;28;20204;-31
2023/08/05 19:45:00;;;;;;;1.93;1.83;;;;;;;;;;5047420;28;20208;-30
2023/08/05 19:47:28;;;;;;;2.47;1.87;;;;;;;;;;5050170;28;20672;-29
2023/08/05 19:49:55;;;;;;;1.97;1.77;;;;;;;;;;5045894;28;20258;-28
2023/08/05 19:52:23;;;;;;;3.13;1.80;;;;;;;;;;5046709;28;20310;-32
2023/08/05 19:54:50;;;;;;;2.03;1.77;;;;;;;;;;5029524;28;20208;-25
2023/08/05 19:57:18;;;;;;;3.87;2.30;;;;;;;;;;5030668;28;20375;-30
2023/08/05 19:59:45;;;;;;;2.60;2.00;;;;;;;;;;5037720;28;20262;-27
2023/08/05 20:02:12;;;;;;;3.93;1.93;;;;;;;;;;5041554;28;20215;-29
2023/08/05 20:04:40;;;;;;;3.70;1.90;;;;;;;;;;5041399;28;20212;-29
2023/08/05 20:07:07;;;;;;;2.37;1.90;;;;;;;;;;5032808;28;20247;-31
2023/08/05 20:09:36;;;;;;;2.77;2.13;;;;;;;;;;5047576;28;20320;-29
2023/08/05 20:12:03;;;;;;;2.40;1.73;;;;;;;;;;5030459;28;20530;-30
2023/08/05 20:14:30;;;;;;;2.30;2.10;;;;;;;;;;5043448;28;20204;-28
2023/08/05 20:16:57;;;;;;;1.83;1.73;;;;;;;;;;5040660;28;20216;-30
2023/08/05 20:19:25;;;;;;;1.70;1.60;;;;;;;;;;5041394;28;20260;-27
2023/08/05 20:21:52;;;;;;;2.10;1.90;;;;;;;;;;5028077;28;20740;-31
2023/08/05 20:24:19;;;;;;;2.20;2.07;;;;;;;;;;5044774;28;20212;-27
2023/08/05 20:26:48;;;;;;;2.07;1.90;;;;;;;;;;5042387;28;20216;-31
2023/08/05 20:29:15;;;;;;;2.60;2.40;;;;;;;;;;5040289;28;20315;-29
2023/08/05 20:31:42;;;;;;;3.37;2.73;;;;;;;;;;5052546;28;20203;-30
2023/08/05 20:34:09;;;;;;;5.60;2.60;;;;;;;;;;5033341;28;20346;-32
2023/08/05 20:36:36;;;;;;;3.03;2.10;;;;;;;;;;5031456;28;20246;-27
2023/08/05 20:39:04;;;;;;;4.23;2.27;;;;;;;;;;5042515;28;20310;-29